Time;durP1;ratioP1;P1;durP2;ratioP2;P2;SDS_P1;SDS_P2;PMS_P1;PMS_P2;Temp;Humidity;BMP_temperature;BMP_pressure;BME280_temperature;BME280_humidity;BME280_pressure;Samples;Min_cycle;Max_cycle;Signal;HPM_P1;HPM_P2
2022/10/01 00:00:53;;;;;;;8.30;2.50;;;;;;;19.88;61.84;100011.81;5032855;28;20791;-68
2022/10/01 00:03:19;;;;;;;5.13;2.43;;;;;;;19.89;61.79;100002.00;5048956;28;20176;-69
2022/10/01 00:05:44;;;;;;;4.23;2.33;;;;;;;19.87;61.96;100011.00;5031244;28;20446;-69
2022/10/01 00:08:10;;;;;;;8.60;2.63;;;;;;;19.82;62.26;100013.44;5032506;28;20483;-68
2022/10/01 00:10:40;;;;;;;4.90;2.60;;;;;;;19.84;62.06;100017.53;5032508;28;20252;-69
2022/10/01 00:13:06;;;;;;;7.77;2.70;;;;;;;19.84;62.15;100005.25;5032598;28;20595;-69
2022/10/01 00:15:31;;;;;;;7.10;2.43;;;;;;;19.78;62.40;100013.41;5051360;28;20406;-69
2022/10/01 00:17:57;;;;;;;4.63;2.40;;;;;;;19.80;62.38;100016.69;5050844;28;20198;-68
2022/10/01 00:20:22;;;;;;;6.40;2.60;;;;;;;19.81;62.38;100017.50;5051414;28;20605;-69
2022/10/01 00:22:48;;;;;;;6.67;2.30;;;;;;;19.80;62.41;100013.81;5051764;28;20175;-69
2022/10/01 00:25:13;;;;;;;5.57;2.80;;;;;;;19.82;62.42;100007.69;5050489;28;20179;-68
2022/10/01 00:27:39;;;;;;;4.20;1.90;;;;;;;19.77;62.50;100006.00;5052179;28;20643;-69
2022/10/01 00:30:05;;;;;;;6.97;2.53;;;;;;;19.77;62.48;100011.72;5052004;28;20172;-69
2022/10/01 00:32:31;;;;;;;7.20;2.80;;;;;;;19.80;62.47;100010.94;5034026;28;20171;-69
2022/10/01 00:34:58;;;;;;;7.20;2.53;;;;;;;19.78;62.83;100013.41;5050700;28;20775;-69
2022/10/01 00:37:24;;;;;;;6.00;2.30;;;;;;;19.75;62.76;100019.91;5051241;28;20171;-69
2022/10/01 00:39:49;;;;;;;6.13;2.40;;;;;;;19.76;62.67;100015.81;5050435;28;20449;-69
2022/10/01 00:42:20;;;;;;;8.60;2.80;;;;;;;19.75;62.67;100004.75;5052026;28;20164;-69
2022/10/01 00:44:46;;;;;;;5.93;2.20;;;;;;;19.79;62.59;100011.34;5034126;28;20218;-69
2022/10/01 00:47:25;;;;;;;7.10;2.27;;;;;;;19.80;62.61;100012.97;5050205;28;20422;-69
2022/10/01 00:49:54;;;;;;;6.00;2.20;;;;;;;19.76;62.71;100012.94;5051281;28;20195;-69
2022/10/01 00:52:21;;;;;;;3.80;2.37;;;;;;;19.75;62.61;100019.06;5050026;28;20421;-69
2022/10/01 00:54:53;;;;;;;5.47;2.00;;;;;;;19.76;62.53;100015.81;5049707;28;20461;-69
2022/10/01 00:57:20;;;;;;;5.90;2.70;;;;;;;19.78;62.91;100010.53;5032201;28;20427;-69
2022/10/01 00:59:46;;;;;;;5.90;2.23;;;;;;;19.76;62.86;100015.81;5048405;28;20521;-69
2022/10/01 01:02:11;;;;;;;3.00;2.27;;;;;;;19.76;62.57;100006.41;5033963;28;20437;-69
2022/10/01 01:04:38;;;;;;;4.13;2.10;;;;;;;19.74;62.97;100001.09;5024456;28;20286;-69
2022/10/01 01:07:04;;;;;;;4.67;1.90;;;;;;;19.71;62.89;99996.13;5029398;28;20635;-69
2022/10/01 01:09:32;;;;;;;4.23;2.10;;;;;;;19.74;62.96;100000.25;5016052;28;20454;-69
2022/10/01 01:12:06;;;;;;;4.23;2.00;;;;;;;19.72;63.14;100003.50;5049897;28;20228;-68
2022/10/01 01:14:46;;;;;;;5.60;2.00;;;;;;;19.74;62.94;99995.34;5051354;28;20413;-69
2022/10/01 01:17:18;;;;;;;4.60;2.20;;;;;;;19.72;62.94;99989.19;5051188;28;20449;-70
2022/10/01 01:19:52;;;;;;;4.63;2.30;;;;;;;19.72;63.05;99991.25;5033389;28;20553;-68
2022/10/01 01:22:18;;;;;;;7.43;1.70;;;;;;;19.73;63.07;99981.41;5051311;28;20408;-69
2022/10/01 01:25:01;;;;;;;3.97;2.00;;;;;;;19.72;63.10;99986.31;5033673;28;20468;-69
2022/10/01 01:27:51;;;;;;;4.33;2.10;;;;;;;19.72;63.00;99974.06;5051229;28;20403;-69
2022/10/01 01:30:17;;;;;;;5.00;2.53;;;;;;;19.74;63.30;99981.03;5050654;28;20834;-70
2022/10/01 01:33:02;;;;;;;4.20;2.10;;;;;;;19.72;63.00;99974.84;5033105;28;20410;-69
2022/10/01 01:35:36;;;;;;;5.00;2.13;;;;;;;19.70;63.25;99959.28;5050676;28;20202;-68
2022/10/01 01:38:06;;;;;;;4.73;1.97;;;;;;;19.71;63.14;99952.38;5032875;28;20453;-68
2022/10/01 01:40:33;;;;;;;5.97;1.93;;;;;;;19.68;63.07;99948.25;5033487;28;20418;-69
2022/10/01 01:42:58;;;;;;;3.27;1.80;;;;;;;19.70;63.26;99950.69;5016795;28;20418;-69
2022/10/01 01:45:27;;;;;;;6.10;2.00;;;;;;;19.70;63.39;99944.97;5032490;28;20433;-68
2022/10/01 01:47:54;;;;;;;4.57;2.37;;;;;;;19.70;63.12;99948.66;5032815;28;20160;-69
2022/10/01 01:50:20;;;;;;;3.87;1.80;;;;;;;19.70;63.08;99934.34;5032836;28;20529;-69
2022/10/01 01:52:45;;;;;;;4.07;2.00;;;;;;;19.69;63.32;99935.56;5050157;28;20414;-68
2022/10/01 01:55:11;;;;;;;4.70;2.00;;;;;;;19.71;63.29;99938.84;5049279;28;20171;-69
2022/10/01 01:57:41;;;;;;;3.10;1.83;;;;;;;19.72;63.33;99934.75;5048462;28;20172;-69
2022/10/01 02:00:07;;;;;;;4.37;2.20;;;;;;;19.69;63.12;99947.03;5032451;28;20259;-69
2022/10/01 02:02:33;;;;;;;4.10;2.40;;;;;;;19.68;63.28;99942.53;5048884;28;20410;-69
2022/10/01 02:04:59;;;;;;;4.17;2.33;;;;;;;19.68;62.99;99939.66;5050030;28;20782;-68
2022/10/01 02:07:52;;;;;;;5.03;2.37;;;;;;;19.67;63.33;99938.00;5046539;28;20180;-68
2022/10/01 02:10:23;;;;;;;4.10;2.10;;;;;;;19.66;63.28;99933.50;5030072;28;20462;-69
2022/10/01 02:12:52;;;;;;;4.60;2.10;;;;;;;19.68;63.34;99930.25;5030293;28;20984;-69
2022/10/01 02:15:34;;;;;;;4.00;2.17;;;;;;;19.69;63.37;99926.16;5029879;28;20887;-69
2022/10/01 02:18:21;;;;;;;5.67;1.70;;;;;;;19.67;63.43;99922.88;5013181;28;20463;-69
2022/10/01 02:20:49;;;;;;;5.57;2.43;;;;;;;19.67;63.49;99920.00;5030025;28;20761;-68
2022/10/01 02:23:17;;;;;;;4.53;2.33;;;;;;;19.69;63.50;99920.41;5045704;28;20465;-68
2022/10/01 02:25:45;;;;;;;6.30;2.07;;;;;;;19.68;63.30;99924.50;5034453;28;20437;-69
2022/10/01 02:28:14;;;;;;;3.33;1.90;;;;;;;19.67;63.28;99917.94;5032410;28;20386;-69
2022/10/01 02:30:39;;;;;;;3.30;1.70;;;;;;;19.67;63.28;99911.41;5032333;28;20461;-68
2022/10/01 02:33:05;;;;;;;3.23;1.77;;;;;;;19.67;63.45;99917.16;5048640;28;20897;-68
2022/10/01 02:35:31;;;;;;;3.47;1.73;;;;;;;19.67;63.16;99909.34;5031517;28;20581;-69
2022/10/01 02:37:57;;;;;;;4.40;1.77;;;;;;;19.68;63.02;99902.44;5048455;28;20458;-69
2022/10/01 02:40:26;;;;;;;3.93;1.87;;;;;;;19.65;63.48;99896.66;5048214;28;20463;-69
2022/10/01 02:42:55;;;;;;;2.97;2.00;;;;;;;19.66;63.52;99902.00;5032340;28;20524;-69
2022/10/01 02:45:22;;;;;;;4.43;1.80;;;;;;;19.66;63.47;99904.06;5031446;28;20415;-68
2022/10/01 02:48:01;;;;;;;4.00;2.13;;;;;;;19.65;63.32;99919.56;5048528;28;20445;-69
2022/10/01 02:50:30;;;;;;;3.30;1.90;;;;;;;19.65;63.31;99911.81;5031757;28;20924;-69
2022/10/01 02:52:58;;;;;;;3.73;2.47;;;;;;;19.64;63.41;99918.75;5032403;28;20465;-69
2022/10/01 02:55:32;;;;;;;3.67;2.17;;;;;;;19.62;63.58;99906.88;5031204;28;20417;-68
2022/10/01 02:57:57;;;;;;;3.43;1.70;;;;;;;19.63;63.34;99908.53;5048313;28;20465;-69
2022/10/01 03:00:25;;;;;;;3.87;2.10;;;;;;;19.64;63.53;99907.31;5049291;28;20421;-69
2022/10/01 03:02:51;;;;;;;3.50;1.67;;;;;;;19.66;63.44;99896.25;5048155;28;20187;-69
2022/10/01 03:05:16;;;;;;;5.77;2.10;;;;;;;19.67;63.31;99900.75;5047773;28;20422;-69
2022/10/01 03:07:42;;;;;;;3.70;2.00;;;;;;;19.66;63.33;99906.91;5031050;28;20202;-69
2022/10/01 03:10:09;;;;;;;4.03;1.47;;;;;;;19.64;63.35;99903.59;5047891;28;20195;-69
2022/10/01 03:12:34;;;;;;;6.77;2.00;;;;;;;19.65;63.51;99894.63;5027847;28;20574;-69
2022/10/01 03:15:00;;;;;;;5.27;2.07;;;;;;;19.65;63.32;99897.50;5029431;28;20473;-69
2022/10/01 03:17:25;;;;;;;2.83;1.50;;;;;;;19.63;63.49;99894.22;5029149;28;20255;-69
2022/10/01 03:19:51;;;;;;;3.20;1.70;;;;;;;19.64;63.49;99892.97;5028277;28;20218;-69
2022/10/01 03:22:17;;;;;;;3.20;2.10;;;;;;;19.63;63.30;99888.50;5027960;28;20175;-69
2022/10/01 03:24:43;;;;;;;3.50;1.90;;;;;;;19.64;63.43;99892.97;5011915;28;20636;-68
2022/10/01 03:27:08;;;;;;;3.20;1.83;;;;;;;19.65;63.32;99880.31;5029399;28;20454;-69
2022/10/01 03:29:34;;;;;;;7.10;2.40;;;;;;;19.63;63.26;99882.75;5038499;28;20164;-69
2022/10/01 03:31:59;;;;;;;2.77;1.80;;;;;;;19.62;63.52;99881.09;5047999;28;20633;-69
2022/10/01 03:34:25;;;;;;;2.70;1.57;;;;;;;19.63;63.52;99877.03;5049378;28;20164;-69
2022/10/01 03:36:51;;;;;;;2.57;1.70;;;;;;;19.63;63.62;99879.06;5048900;28;20160;-69
2022/10/01 03:39:17;;;;;;;3.40;1.70;;;;;;;19.62;63.61;99872.50;5049224;28;20656;-69
2022/10/01 03:41:42;;;;;;;3.93;1.90;;;;;;;19.61;63.55;99876.59;5031213;28;20399;-67
2022/10/01 03:44:08;;;;;;;2.43;1.60;;;;;;;19.62;63.70;99883.16;5048439;28;20271;-68
2022/10/01 03:46:33;;;;;;;5.53;1.50;;;;;;;19.62;63.48;99877.44;5047584;28;20176;-69
2022/10/01 03:48:59;;;;;;;4.40;2.20;;;;;;;19.61;63.77;99868.00;5049259;28;20195;-68
2022/10/01 03:51:26;;;;;;;3.70;1.93;;;;;;;19.60;63.61;99866.38;5049008;28;20176;-69
2022/10/01 03:53:52;;;;;;;3.40;1.70;;;;;;;19.61;63.62;99868.00;5047648;28;20449;-69
2022/10/01 03:56:17;;;;;;;3.17;1.60;;;;;;;19.61;63.56;99858.59;5050000;28;20750;-69
2022/10/01 03:58:43;;;;;;;3.93;1.50;;;;;;;19.62;63.55;99860.25;5052729;28;20614;-68
2022/10/01 04:01:08;;;;;;;2.90;1.50;;;;;;;19.62;63.47;99848.78;5051216;28;20172;-69
2022/10/01 04:03:34;;;;;;;3.70;2.10;;;;;;;19.59;63.58;99853.28;5052041;28;20172;-69
2022/10/01 04:05:59;;;;;;;2.37;1.60;;;;;;;19.61;63.37;99850.81;5050742;28;20210;-68
2022/10/01 04:08:24;;;;;;;6.13;1.80;;;;;;;19.61;63.43;99862.28;5052158;28;20179;-69
2022/10/01 04:10:50;;;;;;;2.80;2.00;;;;;;;19.63;63.25;99851.25;5034013;28;20200;-69
2022/10/01 04:13:15;;;;;;;3.10;2.03;;;;;;;19.64;63.54;99850.03;5034113;28;20219;-69
2022/10/01 04:15:42;;;;;;;3.40;1.60;;;;;;;19.62;63.31;99855.31;5051207;28;20881;-69
2022/10/01 04:18:08;;;;;;;2.37;1.57;;;;;;;19.62;63.62;99852.44;5034550;28;20470;-69
2022/10/01 04:20:34;;;;;;;2.50;1.60;;;;;;;19.61;63.44;99852.88;5034214;28;20160;-69
2022/10/01 04:23:00;;;;;;;4.27;2.43;;;;;;;19.63;63.32;99854.13;5050741;28;20163;-69
2022/10/01 04:25:25;;;;;;;3.57;1.80;;;;;;;19.63;63.25;99856.97;5033875;28;20828;-68
2022/10/01 04:27:55;;;;;;;3.43;1.70;;;;;;;19.64;63.42;99847.16;5050744;28;20192;-69
2022/10/01 04:30:20;;;;;;;3.07;1.63;;;;;;;19.66;63.42;99846.78;5034013;28;20260;-69
2022/10/01 04:32:46;;;;;;;2.40;1.67;;;;;;;19.64;63.58;99843.47;5050869;28;20792;-69
2022/10/01 04:35:11;;;;;;;2.53;1.50;;;;;;;19.62;63.45;99843.06;5034470;28;20230;-69
2022/10/01 04:37:37;;;;;;;2.90;1.40;;;;;;;19.63;63.64;99847.56;5051294;28;20668;-69
2022/10/01 04:40:03;;;;;;;3.20;1.80;;;;;;;19.61;63.58;99845.09;5050451;28;20606;-68
2022/10/01 04:42:29;;;;;;;4.43;1.90;;;;;;;19.64;63.33;99855.75;5052177;28;20217;-69
2022/10/01 04:44:55;;;;;;;2.90;1.40;;;;;;;19.63;63.42;99861.88;5050567;28;20501;-69
2022/10/01 04:47:21;;;;;;;3.43;1.90;;;;;;;19.65;63.31;99845.09;5050155;28;20179;-69
2022/10/01 04:49:46;;;;;;;2.77;1.80;;;;;;;19.62;63.53;99855.31;5050545;28;20421;-69
2022/10/01 04:52:11;;;;;;;2.90;1.57;;;;;;;19.62;63.51;99852.44;5050370;28;20155;-69
2022/10/01 04:54:37;;;;;;;2.60;1.87;;;;;;;19.62;63.42;99846.72;5050258;28;20171;-69
2022/10/01 04:57:02;;;;;;;3.73;1.90;;;;;;;19.62;63.44;99846.72;5050758;28;20229;-69
2022/10/01 04:59:28;;;;;;;2.97;1.40;;;;;;;19.64;63.26;99843.47;5051324;28;20188;-69
2022/10/01 05:01:53;;;;;;;2.50;1.53;;;;;;;19.64;63.37;99834.88;5050387;28;20194;-69
2022/10/01 05:04:19;;;;;;;2.33;1.43;;;;;;;19.65;63.41;99825.91;5051456;28;20171;-69
2022/10/01 05:06:44;;;;;;;4.07;1.50;;;;;;;19.64;63.48;99832.00;5047688;28;20179;-69
2022/10/01 05:09:09;;;;;;;3.00;1.50;;;;;;;19.64;63.42;99834.88;5049760;28;20227;-69
2022/10/01 05:11:36;;;;;;;3.27;1.63;;;;;;;19.63;63.44;99828.34;5050829;28;20586;-69
2022/10/01 05:14:01;;;;;;;2.67;1.43;;;;;;;19.64;63.43;99818.53;5033659;28;20199;-70
2022/10/01 05:16:26;;;;;;;2.53;1.60;;;;;;;19.61;63.44;99819.31;5050747;28;20419;-69
2022/10/01 05:18:53;;;;;;;5.63;1.70;;;;;;;19.63;63.59;99821.78;5049961;28;20203;-69
2022/10/01 05:21:19;;;;;;;3.00;1.87;;;;;;;19.64;63.48;99818.53;5049550;28;20180;-69
2022/10/01 05:23:44;;;;;;;3.60;1.83;;;;;;;19.63;63.45;99822.63;5049879;28;20914;-68
2022/10/01 05:26:10;;;;;;;4.80;1.93;;;;;;;19.62;63.32;99826.69;5050718;28;20183;-69
2022/10/01 05:28:35;;;;;;;2.50;1.70;;;;;;;19.61;63.51;99813.59;5033232;28;20182;-69
2022/10/01 05:31:01;;;;;;;2.07;1.30;;;;;;;19.59;63.67;99813.19;5050931;28;20179;-69
2022/10/01 05:33:28;;;;;;;2.17;1.47;;;;;;;19.62;63.42;99805.84;5049169;28;20639;-69
2022/10/01 05:35:53;;;;;;;3.87;1.83;;;;;;;19.62;63.58;99809.50;5048973;28;20434;-70
2022/10/01 05:38:19;;;;;;;2.30;1.30;;;;;;;19.62;63.69;99798.03;5032688;28;20458;-69
2022/10/01 05:40:45;;;;;;;2.67;1.73;;;;;;;19.63;63.40;99791.13;5049510;28;20175;-69
2022/10/01 05:43:11;;;;;;;2.63;1.30;;;;;;;19.63;63.50;99788.25;5032707;28;20187;-69
2022/10/01 05:45:36;;;;;;;2.47;1.30;;;;;;;19.63;63.43;99793.97;5049307;28;20175;-69
2022/10/01 05:48:03;;;;;;;3.53;1.43;;;;;;;19.64;63.28;99786.19;5049286;28;20190;-69
2022/10/01 05:50:32;;;;;;;4.77;1.80;;;;;;;19.63;63.42;99788.25;5015990;28;20202;-69
2022/10/01 05:52:58;;;;;;;2.20;1.40;;;;;;;19.62;63.60;99775.13;5033010;28;20399;-70
2022/10/01 05:55:24;;;;;;;2.80;1.50;;;;;;;19.62;63.55;99769.41;5031698;28;20819;-69
2022/10/01 05:58:05;;;;;;;3.10;1.90;;;;;;;19.63;63.36;99771.06;5032561;28;20500;-69
2022/10/01 06:00:31;;;;;;;2.93;1.57;;;;;;;19.66;63.35;99773.13;5017681;28;20183;-69
2022/10/01 06:02:57;;;;;;;2.50;1.57;;;;;;;19.64;63.46;99769.00;5049347;28;20484;-68
2022/10/01 06:05:23;;;;;;;2.40;1.53;;;;;;;19.64;63.48;99766.97;5015250;28;20180;-69
2022/10/01 06:07:49;;;;;;;3.50;1.80;;;;;;;19.62;63.65;99777.19;5048724;28;20484;-69
2022/10/01 06:10:15;;;;;;;2.07;1.53;;;;;;;19.66;63.27;99775.19;5048945;28;20199;-69
2022/10/01 06:12:42;;;;;;;2.40;1.20;;;;;;;19.65;63.46;99768.63;5049915;28;20239;-69
2022/10/01 06:15:07;;;;;;;3.10;1.73;;;;;;;19.65;63.40;99762.88;5049180;28;20437;-69
2022/10/01 06:17:33;;;;;;;3.10;1.77;;;;;;;19.66;63.29;99772.31;5048125;28;20418;-69
2022/10/01 06:19:59;;;;;;;3.50;2.00;;;;;;;19.66;63.17;99775.97;5049637;28;20207;-70
2022/10/01 06:22:24;;;;;;;3.03;1.50;;;;;;;19.64;63.54;99789.06;5031957;28;20607;-69
2022/10/01 06:24:50;;;;;;;2.60;1.37;;;;;;;19.65;63.35;99790.69;5050062;28;20172;-69
2022/10/01 06:27:15;;;;;;;2.53;1.40;;;;;;;19.63;63.53;99816.06;5048211;28;20505;-69
2022/10/01 06:29:41;;;;;;;2.90;1.60;;;;;;;19.65;63.49;99816.47;5049127;28;20510;-69
2022/10/01 06:32:09;;;;;;;2.43;1.20;;;;;;;19.65;63.41;99817.31;5048404;28;20176;-69
2022/10/01 06:34:34;;;;;;;3.17;1.43;;;;;;;19.65;63.37;99793.56;5049947;28;20165;-69
2022/10/01 06:37:00;;;;;;;2.43;1.70;;;;;;;19.63;63.53;99788.25;5031431;28;20418;-69
2022/10/01 06:39:25;;;;;;;2.40;1.33;;;;;;;19.64;63.36;99781.31;5048427;28;20208;-69
2022/10/01 06:41:51;;;;;;;2.37;1.47;;;;;;;19.67;63.38;99788.28;5049137;28;20184;-69
2022/10/01 06:44:17;;;;;;;2.60;1.60;;;;;;;19.63;63.56;99787.41;5048724;28;20179;-69
2022/10/01 06:46:44;;;;;;;2.70;1.60;;;;;;;19.66;63.49;99790.28;5046314;28;20172;-68
2022/10/01 06:49:10;;;;;;;2.43;1.57;;;;;;;19.67;63.36;99788.28;5047588;28;20556;-69
2022/10/01 06:54:19;;;;;;;2.60;1.30;;;;;;;19.65;63.43;99750.59;5047545;28;20680;-69
2022/10/01 06:56:45;;;;;;;2.00;1.27;;;;;;;19.65;63.37;99744.88;5048683;28;20434;-69
2022/10/01 06:59:10;;;;;;;2.90;1.40;;;;;;;19.64;63.44;99751.81;5049666;28;20188;-69
2022/10/01 07:01:36;;;;;;;3.27;1.60;;;;;;;19.65;63.32;99744.88;5049111;28;20164;-69
2022/10/01 07:04:01;;;;;;;2.63;1.63;;;;;;;19.64;63.48;99755.53;5031093;28;20178;-69
2022/10/01 07:06:27;;;;;;;2.53;1.40;;;;;;;19.67;63.30;99751.84;5048069;28;20160;-69
2022/10/01 07:08:52;;;;;;;4.20;1.50;;;;;;;19.67;63.43;99756.75;5048044;28;20179;-69
2022/10/01 07:11:18;;;;;;;3.10;1.50;;;;;;;19.65;63.53;99760.03;5048353;28;20195;-69
2022/10/01 07:13:44;;;;;;;2.53;1.37;;;;;;;19.63;63.44;99751.03;5031555;28;20171;-69
2022/10/01 07:16:09;;;;;;;2.37;1.70;;;;;;;19.66;63.35;99753.06;5010555;28;20519;-69
2022/10/01 07:18:35;;;;;;;2.87;1.60;;;;;;;19.70;63.29;99758.81;5026384;28;20204;-69
2022/10/01 07:21:00;;;;;;;2.40;1.17;;;;;;;19.65;63.38;99765.75;5027852;28;20227;-69
2022/10/01 07:23:26;;;;;;;2.17;1.30;;;;;;;19.65;63.43;99754.28;5027698;28;20168;-69
2022/10/01 07:25:51;;;;;;;3.50;1.30;;;;;;;19.66;63.34;99773.13;5009627;28;20184;-69
2022/10/01 07:28:18;;;;;;;2.40;1.60;;;;;;;19.64;63.50;99784.16;5030141;28;20221;-69
2022/10/01 07:31:06;;;;;;;2.30;1.30;;;;;;;19.65;63.23;99773.50;5048241;28;20187;-69
2022/10/01 07:33:31;;;;;;;3.30;1.40;;;;;;;19.66;63.38;99784.56;5051960;28;20418;-69
2022/10/01 07:36:01;;;;;;;2.30;1.30;;;;;;;19.67;63.70;99785.41;5051376;28;20893;-69
2022/10/01 07:38:26;;;;;;;3.70;1.90;;;;;;;19.66;63.45;99781.72;5034823;28;20667;-70
2022/10/01 07:40:52;;;;;;;2.67;1.53;;;;;;;19.66;63.38;99786.63;5051372;28;20421;-69
2022/10/01 07:43:18;;;;;;;2.60;1.30;;;;;;;19.67;63.44;99786.22;5051713;28;20210;-69
2022/10/01 07:45:45;;;;;;;3.13;1.40;;;;;;;19.65;63.46;99788.66;5034546;28;20433;-68
2022/10/01 07:48:12;;;;;;;2.27;1.57;;;;;;;19.66;63.44;99781.72;5051479;28;20578;-68
2022/10/01 07:50:38;;;;;;;2.60;1.40;;;;;;;19.65;63.43;99785.81;5052713;28;20497;-69
2022/10/01 07:53:03;;;;;;;2.33;1.10;;;;;;;19.68;63.35;99779.28;5051417;28;20429;-68
2022/10/01 07:55:29;;;;;;;2.40;1.43;;;;;;;19.67;63.30;99785.41;5047179;28;20544;-68
2022/10/01 07:58:01;;;;;;;2.07;1.40;;;;;;;19.67;63.37;99782.53;5051987;28;20523;-69
2022/10/01 08:00:27;;;;;;;2.67;1.70;;;;;;;19.68;63.43;99790.75;5051568;28;20418;-69
2022/10/01 08:02:54;;;;;;;2.20;1.40;;;;;;;19.67;63.34;99780.47;5052704;28;20410;-69
2022/10/01 08:05:22;;;;;;;2.13;1.23;;;;;;;19.67;63.33;99776.81;5050352;28;20758;-68
2022/10/01 08:07:48;;;;;;;2.80;1.70;;;;;;;19.67;63.35;99771.88;5048917;28;20426;-68
2022/10/01 08:10:14;;;;;;;2.90;1.40;;;;;;;19.65;63.45;99788.66;5048398;28;20891;-67
2022/10/01 08:12:41;;;;;;;3.37;1.50;;;;;;;19.67;63.45;99788.28;5049167;28;20272;-68
2022/10/01 08:15:10;;;;;;;2.10;1.40;;;;;;;19.68;63.33;99798.50;5048432;28;20640;-68
2022/10/01 08:17:37;;;;;;;2.30;1.10;;;;;;;19.67;63.37;99796.84;5050741;28;20506;-68
2022/10/01 08:20:03;;;;;;;3.00;1.40;;;;;;;19.70;63.47;99805.47;5049889;28;20469;-68
2022/10/01 08:22:29;;;;;;;2.20;1.33;;;;;;;19.71;63.30;99804.22;5050758;28;20418;-67
2022/10/01 08:24:54;;;;;;;1.93;1.20;;;;;;;19.69;63.34;99803.81;5051822;28;20776;-69
2022/10/01 08:27:23;;;;;;;2.40;1.30;;;;;;;19.69;63.18;99809.56;5052196;28;20156;-68
2022/10/01 08:29:48;;;;;;;2.43;1.37;;;;;;;19.70;63.15;99825.50;5034281;28;20184;-68
2022/10/01 08:32:14;;;;;;;4.00;1.57;;;;;;;19.66;63.46;99827.53;5050578;28;20422;-69
2022/10/01 08:34:39;;;;;;;2.17;1.27;;;;;;;19.67;63.54;99822.63;5051309;28;20164;-68
2022/10/01 08:37:04;;;;;;;2.47;1.60;;;;;;;19.67;63.42;99823.44;5049476;28;20213;-68
2022/10/01 08:39:30;;;;;;;2.40;1.30;;;;;;;19.71;63.25;99829.22;5030045;28;20184;-68
2022/10/01 08:42:07;;;;;;;3.03;1.50;;;;;;;19.71;63.26;99829.22;5039509;28;20176;-68
2022/10/01 08:44:40;;;;;;;2.80;1.40;;;;;;;19.70;63.36;99830.41;5048197;28;20179;-68
2022/10/01 08:47:15;;;;;;;2.83;1.33;;;;;;;19.66;63.38;99827.53;5045022;28;20553;-68
2022/10/01 08:49:45;;;;;;;2.90;1.30;;;;;;;19.69;63.34;99840.22;5030641;28;20517;-69
2022/10/01 08:52:13;;;;;;;2.00;1.20;;;;;;;19.67;63.45;99837.75;5031111;28;20411;-68
2022/10/01 08:54:45;;;;;;;2.77;1.43;;;;;;;19.70;63.30;99836.13;5031828;28;20491;-68
2022/10/01 08:57:13;;;;;;;2.93;1.50;;;;;;;19.69;63.44;99838.19;5032174;28;20443;-69
2022/10/01 08:59:44;;;;;;;2.30;1.00;;;;;;;19.68;63.57;99841.44;5021537;28;20457;-68
2022/10/01 09:02:28;;;;;;;1.70;0.87;;;;;;;19.69;63.41;99838.19;5027796;28;20475;-68
2022/10/01 09:04:55;;;;;;;2.30;1.50;;;;;;;19.71;63.22;99852.13;5047645;28;20793;-68
2022/10/01 09:07:50;;;;;;;2.90;1.50;;;;;;;19.70;63.36;99861.91;5041736;28;20402;-68
2022/10/01 09:10:31;;;;;;;3.43;1.30;;;;;;;19.69;63.18;99861.09;5024242;28;20450;-68
2022/10/01 09:13:23;;;;;;;3.00;1.37;;;;;;;19.71;63.26;99864.38;5040013;28;20556;-68
2022/10/01 09:16:30;;;;;;;2.70;1.33;;;;;;;19.69;63.37;99861.09;5033052;28;20430;-68
2022/10/01 09:19:05;;;;;;;2.67;1.57;;;;;;;19.68;63.29;99864.38;5030622;28;20474;-68
2022/10/01 09:21:54;;;;;;;2.40;1.30;;;;;;;19.69;63.33;99851.69;5047256;28;20409;-67
2022/10/01 09:24:40;;;;;;;2.13;1.00;;;;;;;19.70;63.26;99867.63;5051161;28;20402;-68
2022/10/01 09:27:20;;;;;;;2.57;1.47;;;;;;;19.66;63.46;99861.91;5033556;28;20897;-67
2022/10/01 09:29:54;;;;;;;2.30;1.40;;;;;;;19.70;63.40;99865.59;5033438;28;20414;-68
2022/10/01 09:32:23;;;;;;;2.33;1.60;;;;;;;19.70;63.23;99862.75;5033080;28;20480;-68
2022/10/01 09:34:48;;;;;;;2.43;1.37;;;;;;;19.69;63.38;99872.56;5049846;28;20840;-68
2022/10/01 09:37:28;;;;;;;2.70;1.50;;;;;;;19.44;60.19;99859.28;5005767;28;20454;-67
2022/10/01 09:40:14;;;;;;;3.97;1.97;;;;;;;19.12;60.93;99855.31;5049288;28;20203;-68
2022/10/01 09:42:40;;;;;;;6.53;2.20;;;;;;;18.87;60.81;99848.56;5049425;28;20430;-67
2022/10/01 09:45:06;;;;;;;3.30;1.93;;;;;;;18.88;61.71;99844.47;5049233;28;20438;-67
2022/10/01 09:47:31;;;;;;;2.93;1.63;;;;;;;19.12;61.19;99844.69;5055410;28;20646;-67
2022/10/01 09:49:57;;;;;;;6.17;1.90;;;;;;;19.40;62.21;99841.25;5050856;28;20549;-68
2022/10/01 09:52:33;;;;;;;12.07;4.53;;;;;;;19.65;62.67;99840.22;5040251;28;20267;-67
2022/10/01 09:55:06;;;;;;;5.33;2.33;;;;;;;19.83;61.87;99843.19;5062421;28;20538;-68
2022/10/01 09:57:34;;;;;;;5.70;2.80;;;;;;;19.82;62.09;99850.94;5051065;28;20934;-67
2022/10/01 10:00:09;;;;;;;6.70;2.77;;;;;;;19.93;62.03;99848.97;5068273;28;20960;-67
2022/10/01 10:02:42;;;;;;;8.70;2.37;;;;;;;19.93;62.28;99834.66;5067094;28;20513;-68
2022/10/01 10:05:18;;;;;;;5.37;2.60;;;;;;;20.07;62.18;99831.03;5045491;28;20434;-68
2022/10/01 10:07:57;;;;;;;4.93;2.30;;;;;;;20.02;62.79;99837.94;5048500;28;20771;-66
2022/10/01 10:10:26;;;;;;;4.50;2.07;;;;;;;20.05;62.76;99845.75;5049049;28;20466;-68
2022/10/01 10:13:00;;;;;;;7.80;2.57;;;;;;;20.08;63.07;99845.00;5053473;28;20477;-67
2022/10/01 10:15:25;;;;;;;6.13;2.17;;;;;;;20.20;62.69;99840.91;5068005;28;20433;-68
2022/10/01 10:17:51;;;;;;;4.20;1.90;;;;;;;20.15;62.79;99850.75;5069938;28;20817;-69
2022/10/01 10:20:29;;;;;;;4.07;2.13;;;;;;;20.17;62.81;99836.00;5035297;28;20287;-67
2022/10/01 10:23:05;;;;;;;3.40;2.20;;;;;;;20.24;63.83;99841.75;5034210;28;20656;-68
2022/10/01 10:25:31;;;;;;;5.10;2.53;;;;;;;20.32;63.39;99849.19;5048144;28;20403;-68
2022/10/01 10:27:58;;;;;;;6.80;2.63;;;;;;;20.34;61.96;99838.13;5051011;28;20447;-67
2022/10/01 10:30:24;;;;;;;3.50;2.07;;;;;;;20.28;61.79;99843.44;5061463;28;20211;-67
2022/10/01 10:32:50;;;;;;;4.73;2.50;;;;;;;20.21;62.96;99842.59;5050174;28;20433;-68
2022/10/01 10:35:18;;;;;;;6.87;2.30;;;;;;;20.35;62.60;99845.47;5066612;28;20669;-68
2022/10/01 10:37:46;;;;;;;3.67;2.20;;;;;;;20.43;62.62;99852.91;5062008;28;20203;-68
2022/10/01 10:40:35;;;;;;;4.37;2.17;;;;;;;20.35;62.88;99857.78;5033856;28;20861;-67
2022/10/01 10:43:00;;;;;;;4.50;2.07;;;;;;;20.33;62.97;99845.09;5047405;28;20548;-69
2022/10/01 10:45:45;;;;;;;5.77;2.77;;;;;;;20.30;63.46;99852.44;5043665;28;20442;-68
2022/10/01 10:48:14;;;;;;;2.80;1.70;;;;;;;20.26;63.49;99848.72;5047322;28;20202;-67
2022/10/01 10:50:39;;;;;;;7.10;2.10;;;;;;;20.16;63.58;99858.13;5026607;28;20427;-68
2022/10/01 10:53:20;;;;;;;6.10;2.20;;;;;;;20.16;62.94;99852.38;5028140;28;20867;-68
2022/10/01 10:55:59;;;;;;;5.73;2.23;;;;;;;20.17;63.20;99844.63;5059580;28;20187;-67
2022/10/01 10:58:26;;;;;;;5.70;1.60;;;;;;;20.20;63.08;99847.50;5037668;28;20827;-67
2022/10/01 11:00:52;;;;;;;4.00;1.60;;;;;;;20.26;63.94;99845.06;5067540;28;20455;-69
2022/10/01 11:03:20;;;;;;;9.77;1.90;;;;;;;20.34;63.99;99847.56;5044571;28;21240;-70
2022/10/01 11:05:50;;;;;;;5.30;2.20;;;;;;;20.43;63.76;99856.59;5048392;28;20191;-68
2022/10/01 11:08:20;;;;;;;13.37;2.83;;;;;;;20.43;63.36;99856.59;5034384;28;20441;-67
2022/10/01 11:11:17;;;;;;;7.20;3.40;;;;;;;20.58;63.01;99860.31;5030523;28;20443;-66
2022/10/01 11:14:02;;;;;;;6.90;3.07;;;;;;;20.67;63.45;99866.50;5048942;28;20445;-68
2022/10/01 11:16:43;;;;;;;6.90;3.77;;;;;;;20.82;63.57;99863.25;5064250;28;20439;-69
2022/10/01 11:19:29;;;;;;;9.97;3.67;;;;;;;20.97;63.60;99870.66;5050689;28;20458;-68
2022/10/01 11:22:19;;;;;;;8.77;3.90;;;;;;;20.68;64.62;99874.66;5049374;28;20419;-69
2022/10/01 11:25:13;;;;;;;6.70;3.20;;;;;;;20.63;64.66;99882.88;5052039;28;20904;-68
2022/10/01 11:27:54;;;;;;;7.10;3.30;;;;;;;20.55;65.11;99876.28;5053046;28;20413;-68
2022/10/01 11:30:24;;;;;;;5.80;3.13;;;;;;;20.56;65.48;99877.09;5061089;28;20775;-68
2022/10/01 11:33:18;;;;;;;5.90;2.90;;;;;;;20.55;65.10;99884.06;5050404;28;20913;-68
2022/10/01 11:36:00;;;;;;;6.00;2.73;;;;;;;20.58;64.66;99886.94;5055947;28;20417;-67
2022/10/01 11:38:40;;;;;;;7.77;2.87;;;;;;;20.48;64.21;99887.75;5058147;28;20983;-68
2022/10/01 11:41:14;;;;;;;7.20;2.33;;;;;;;20.42;64.52;99894.28;5049549;28;20535;-67
2022/10/01 11:43:43;;;;;;;13.33;2.87;;;;;;;20.41;63.14;99884.84;5040538;28;20432;-69